createdAt,value
2022-12-15T00:00:30.084Z,76.50
2022-12-15T00:01:30.041Z,76.29
2022-12-15T00:02:30.097Z,75.86
2022-12-15T00:03:30.564Z,75.97
2022-12-15T00:04:29.991Z,75.86
2022-12-15T00:05:29.981Z,76.21
2022-12-15T00:06:30.043Z,76.18
2022-12-15T00:07:29.968Z,76.07
2022-12-15T00:08:29.950Z,76.39
2022-12-15T00:09:31.110Z,76.07
2022-12-15T00:10:29.927Z,75.79
2022-12-15T00:11:29.918Z,75.65
2022-12-15T00:12:29.918Z,75.90
2022-12-15T00:13:30.448Z,76.32
2022-12-15T00:14:29.888Z,76.50
2022-12-15T00:15:29.877Z,76.71
2022-12-15T00:16:29.935Z,76.92
2022-12-15T00:17:29.890Z,77.34
2022-12-15T00:18:29.846Z,77.24
2022-12-15T00:19:29.855Z,77.13
2022-12-15T00:20:29.828Z,77.56
2022-12-15T00:21:29.816Z,77.56
2022-12-15T00:22:29.853Z,77.45
2022-12-15T00:23:30.256Z,77.76
2022-12-15T00:24:29.784Z,77.73
2022-12-15T00:25:29.772Z,77.84
2022-12-15T00:26:29.789Z,78.16
2022-12-15T00:27:29.752Z,78.47
2022-12-15T00:28:29.743Z,78.26
2022-12-15T00:29:29.731Z,78.89
2022-12-15T00:30:29.724Z,78.89
2022-12-15T00:31:29.770Z,79.17
2022-12-15T00:32:29.702Z,79.81
2022-12-15T00:33:30.169Z,80.02
2022-12-15T00:34:29.685Z,79.71
2022-12-15T00:35:29.670Z,80.02
2022-12-15T00:36:29.672Z,80.02
2022-12-15T00:37:29.651Z,80.13
2022-12-15T00:38:29.642Z,80.13
2022-12-15T00:39:29.627Z,79.81
2022-12-15T00:40:29.627Z,79.81
2022-12-15T00:41:29.618Z,79.81
2022-12-15T00:42:29.600Z,79.28
2022-12-15T00:43:30.027Z,79.53
2022-12-15T00:44:29.578Z,79.43
2022-12-15T00:45:29.565Z,79.53
2022-12-15T00:46:29.688Z,79.96
2022-12-15T00:47:29.547Z,79.85
2022-12-15T00:48:29.538Z,79.32
2022-12-15T00:49:29.554Z,79.74
2022-12-15T00:50:29.517Z,79.64
2022-12-15T00:51:29.534Z,79.21
2022-12-15T00:52:29.496Z,79.96
2022-12-15T00:53:30.007Z,79.85
2022-12-15T00:54:29.476Z,79.85
2022-12-15T00:55:29.463Z,79.64
2022-12-15T00:56:29.515Z,79.64
2022-12-15T00:57:29.445Z,78.79
2022-12-15T00:58:29.432Z,78.05
2022-12-15T00:59:29.425Z,77.66
2022-12-15T01:00:29.413Z,77.45
2022-12-15T01:01:29.705Z,77.34
2022-12-15T01:02:29.578Z,77.24
2022-12-15T01:03:30.096Z,76.46
2022-12-15T01:04:29.373Z,76.07
2022-12-15T01:05:29.384Z,74.70
2022-12-15T01:06:29.359Z,74.84
2022-12-15T01:07:29.341Z,74.27
2022-12-15T01:08:29.328Z,74.31
2022-12-15T01:09:29.320Z,74.63
2022-12-15T01:10:29.308Z,74.95
2022-12-15T01:11:29.314Z,74.52
2022-12-15T01:12:29.291Z,73.68
2022-12-15T01:13:29.754Z,73.57
2022-12-15T01:14:29.267Z,73.25
2022-12-15T01:15:29.259Z,73.39
2022-12-15T01:16:29.313Z,73.28
2022-12-15T01:17:29.238Z,73.60
2022-12-15T01:18:29.233Z,74.38
2022-12-15T01:19:29.217Z,74.48
2022-12-15T01:20:29.222Z,74.48
2022-12-15T01:21:29.227Z,74.66
2022-12-15T01:22:29.184Z,75.23
2022-12-15T01:23:29.621Z,74.91
2022-12-15T01:24:29.165Z,74.80
2022-12-15T01:25:29.171Z,75.33
2022-12-15T01:26:29.155Z,75.43
2022-12-15T01:27:29.145Z,75.86
2022-12-15T01:28:29.129Z,76.07
2022-12-15T01:29:29.118Z,75.93
2022-12-15T01:30:29.108Z,76.35
2022-12-15T01:31:29.206Z,76.92
2022-12-15T01:32:29.084Z,77.31
2022-12-15T01:33:29.616Z,77.56
2022-12-15T01:34:29.063Z,77.56
2022-12-15T01:35:29.054Z,77.87
2022-12-15T01:36:29.052Z,77.62
2022-12-15T01:37:29.053Z,77.94
2022-12-15T01:38:29.028Z,78.47
2022-12-15T01:39:29.018Z,78.47
2022-12-15T01:40:29.003Z,78.58
2022-12-15T01:41:29.008Z,78.89
2022-12-15T01:42:28.982Z,78.69
2022-12-15T01:43:29.699Z,79.50
2022-12-15T01:44:28.962Z,79.07
2022-12-15T01:45:29.007Z,79.28
2022-12-15T01:46:29.011Z,78.86
2022-12-15T01:47:28.933Z,79.07
2022-12-15T01:48:28.927Z,79.50
2022-12-15T01:49:28.912Z,78.61
2022-12-15T01:50:28.918Z,78.75
2022-12-15T01:51:28.905Z,78.55
2022-12-15T01:52:28.881Z,78.02
2022-12-15T01:53:29.421Z,78.33
2022-12-15T01:54:28.862Z,77.91
2022-12-15T01:55:28.850Z,78.02
2022-12-15T01:56:33.850Z,78.02
2022-12-15T01:57:29.830Z,78.23
2022-12-15T01:58:28.818Z,78.02
2022-12-15T01:59:28.812Z,78.33
2022-12-15T02:00:28.867Z,78.33
2022-12-15T02:01:28.957Z,78.30
2022-12-15T02:02:28.839Z,78.12
2022-12-15T02:03:29.481Z,78.02
2022-12-15T02:04:28.760Z,77.91
2022-12-15T02:05:28.747Z,78.02
2022-12-15T02:06:28.753Z,78.02
2022-12-15T02:07:28.731Z,77.70
2022-12-15T02:08:28.719Z,77.91
2022-12-15T02:09:28.731Z,78.12
2022-12-15T02:10:28.695Z,77.80
2022-12-15T02:11:28.697Z,77.80
2022-12-15T02:12:28.675Z,77.70
2022-12-15T02:13:29.036Z,77.48
2022-12-15T02:14:28.655Z,77.59
2022-12-15T02:15:28.646Z,77.17
2022-12-15T02:16:28.766Z,77.38
2022-12-15T02:17:28.626Z,77.38
2022-12-15T02:18:28.612Z,77.70
2022-12-15T02:19:28.604Z,77.48
2022-12-15T02:20:28.591Z,77.70
2022-12-15T02:21:28.591Z,77.70
2022-12-15T02:22:28.574Z,77.70
2022-12-15T02:23:28.918Z,78.02
2022-12-15T02:24:28.551Z,78.02
2022-12-15T02:25:28.566Z,78.23
2022-12-15T02:26:28.581Z,78.02
2022-12-15T02:27:28.522Z,78.55
2022-12-15T02:28:28.510Z,78.55
2022-12-15T02:29:28.501Z,78.44
2022-12-15T02:30:28.491Z,78.40
2022-12-15T02:31:28.547Z,78.86
2022-12-15T02:32:28.469Z,78.65
2022-12-15T02:33:28.936Z,79.71
2022-12-15T02:34:28.450Z,78.86
2022-12-15T02:35:28.440Z,79.60
2022-12-15T02:36:28.440Z,79.99
2022-12-15T02:37:28.424Z,79.71
2022-12-15T02:38:28.410Z,79.67
2022-12-15T02:39:28.400Z,80.20
2022-12-15T02:40:28.392Z,80.34
2022-12-15T02:41:28.413Z,80.24
2022-12-15T02:42:28.366Z,80.73
2022-12-15T02:43:28.872Z,80.87
2022-12-15T02:44:28.345Z,80.66
2022-12-15T02:45:28.409Z,80.94
2022-12-15T02:46:28.334Z,80.94
2022-12-15T02:47:28.317Z,81.09
2022-12-15T02:48:28.305Z,81.62
2022-12-15T02:49:28.294Z,81.51
2022-12-15T02:50:28.287Z,81.30
2022-12-15T02:51:28.288Z,81.30
2022-12-15T02:52:28.264Z,81.09
2022-12-15T02:53:28.577Z,81.19
2022-12-15T02:54:28.243Z,81.19
2022-12-15T02:55:28.235Z,81.30
2022-12-15T02:56:28.236Z,81.09
2022-12-15T02:57:28.236Z,81.40
2022-12-15T02:58:28.204Z,81.40
2022-12-15T02:59:28.194Z,81.62
2022-12-15T03:00:28.181Z,81.47
2022-12-15T03:01:28.330Z,81.51
2022-12-15T03:02:28.310Z,80.77
2022-12-15T03:03:28.514Z,80.94
2022-12-15T03:04:28.145Z,80.87
2022-12-15T03:05:28.131Z,80.98
2022-12-15T03:06:28.131Z,80.66
2022-12-15T03:07:28.145Z,80.77
2022-12-15T03:08:28.101Z,80.77
2022-12-15T03:09:28.095Z,81.09
2022-12-15T03:10:28.080Z,81.19
2022-12-15T03:11:28.082Z,81.30
2022-12-15T03:12:28.060Z,80.87
2022-12-15T03:13:28.426Z,80.77
2022-12-15T03:14:28.039Z,81.19
2022-12-15T03:15:31.830Z,81.19
2022-12-15T03:16:29.075Z,80.98
2022-12-15T03:17:28.011Z,81.09
2022-12-15T03:18:27.997Z,80.77
2022-12-15T03:19:27.991Z,80.87
2022-12-15T03:20:27.980Z,80.77
2022-12-15T03:21:27.978Z,80.55
2022-12-15T03:22:27.980Z,80.02
2022-12-15T03:23:28.401Z,80.24
2022-12-15T03:24:27.938Z,80.45
2022-12-15T03:25:27.928Z,79.92
2022-12-15T03:26:27.925Z,79.82
2022-12-15T03:27:27.907Z,80.24
2022-12-15T03:28:27.897Z,79.60
2022-12-15T03:29:27.906Z,79.82
2022-12-15T03:30:27.874Z,79.50
2022-12-15T03:31:27.936Z,79.43
2022-12-15T03:32:27.860Z,79.74
2022-12-15T03:33:28.313Z,79.21
2022-12-15T03:34:27.836Z,79.11
2022-12-15T03:35:27.835Z,79.32
2022-12-15T03:36:27.844Z,78.69
2022-12-15T03:37:27.807Z,78.79
2022-12-15T03:38:27.793Z,78.69
2022-12-15T03:39:27.786Z,79.00
2022-12-15T03:40:27.786Z,79.11
2022-12-15T03:41:27.775Z,78.89
2022-12-15T03:42:27.753Z,78.47
2022-12-15T03:43:27.962Z,78.16
2022-12-15T03:44:27.732Z,78.16
2022-12-15T03:45:27.753Z,78.05
2022-12-15T03:46:27.770Z,78.58
2022-12-15T03:47:27.706Z,78.47
2022-12-15T03:48:27.691Z,78.79
2022-12-15T03:49:27.681Z,78.89
2022-12-15T03:50:27.669Z,78.97
2022-12-15T03:51:27.674Z,78.97
2022-12-15T03:52:27.650Z,79.53
2022-12-15T03:53:27.830Z,79.71
2022-12-15T03:54:27.631Z,79.92
2022-12-15T03:55:27.619Z,79.82
2022-12-15T03:56:27.630Z,79.92
2022-12-15T03:57:27.600Z,79.82
2022-12-15T03:58:27.590Z,79.92
2022-12-15T03:59:27.583Z,80.34
2022-12-15T04:00:27.590Z,80.24
2022-12-15T04:01:27.812Z,80.10
2022-12-15T04:02:27.769Z,80.45
2022-12-15T04:03:27.783Z,80.02
2022-12-15T04:04:27.527Z,79.92
2022-12-15T04:05:27.524Z,79.78
2022-12-15T04:06:27.515Z,79.99
2022-12-15T04:07:27.499Z,79.07
2022-12-15T04:08:27.503Z,78.55
2022-12-15T04:09:27.483Z,78.55
2022-12-15T04:10:33.603Z,78.33
2022-12-15T04:11:28.496Z,78.02
2022-12-15T04:12:27.446Z,78.37
2022-12-15T04:13:27.610Z,78.37
2022-12-15T04:14:27.425Z,78.69
2022-12-15T04:15:27.418Z,78.69
2022-12-15T04:16:27.438Z,79.43
2022-12-15T04:17:27.413Z,79.43
2022-12-15T04:18:27.385Z,80.06
2022-12-15T04:19:27.380Z,79.92
2022-12-15T04:20:27.372Z,79.60
2022-12-15T04:21:27.356Z,79.92
2022-12-15T04:22:27.351Z,79.82
2022-12-15T04:23:27.603Z,80.13
2022-12-15T04:24:27.321Z,80.55
2022-12-15T04:25:27.315Z,80.66
2022-12-15T04:26:27.305Z,80.94
2022-12-15T04:27:27.304Z,80.94
2022-12-15T04:28:27.286Z,80.66
2022-12-15T04:29:27.274Z,80.87
2022-12-15T04:30:27.260Z,81.62
2022-12-15T04:31:27.357Z,81.30
2022-12-15T04:32:27.249Z,81.19
2022-12-15T04:33:30.737Z,81.30
2022-12-15T04:34:27.221Z,81.09
2022-12-15T04:35:27.211Z,81.30
2022-12-15T04:36:27.201Z,81.40
2022-12-15T04:37:27.215Z,81.62
2022-12-15T04:38:27.180Z,80.98
2022-12-15T04:39:27.170Z,80.66
2022-12-15T04:40:27.169Z,80.77
2022-12-15T04:41:27.151Z,80.77
2022-12-15T04:42:27.152Z,80.98
2022-12-15T04:43:27.134Z,80.98
2022-12-15T04:44:27.116Z,81.09
2022-12-15T04:45:27.111Z,80.87
2022-12-15T04:46:27.207Z,80.02
2022-12-15T04:47:27.102Z,79.64
2022-12-15T04:48:27.076Z,80.17
2022-12-15T04:49:27.095Z,79.96
2022-12-15T04:50:27.065Z,80.10
2022-12-15T04:51:27.045Z,79.85
2022-12-15T04:52:27.046Z,79.46
2022-12-15T04:53:27.077Z,79.53
2022-12-15T04:54:27.018Z,79.46
2022-12-15T04:55:27.008Z,79.25
2022-12-15T04:56:27.044Z,79.78
2022-12-15T04:57:27.006Z,80.10
2022-12-15T04:58:26.974Z,80.10
2022-12-15T04:59:26.970Z,79.82
2022-12-15T05:00:26.956Z,79.50
2022-12-15T05:01:27.110Z,79.82
2022-12-15T05:02:27.101Z,80.13
2022-12-15T05:03:26.930Z,79.92
2022-12-15T05:04:26.983Z,80.24
2022-12-15T05:05:26.922Z,80.13
2022-12-15T05:06:26.909Z,80.35
2022-12-15T05:07:26.895Z,80.45
2022-12-15T05:08:26.901Z,80.98
2022-12-15T05:09:26.863Z,80.98
2022-12-15T05:10:26.858Z,81.62
2022-12-15T05:11:26.842Z,81.41
2022-12-15T05:12:26.847Z,81.51
2022-12-15T05:13:26.836Z,81.30
2022-12-15T05:14:26.817Z,81.51
2022-12-15T05:15:26.854Z,81.41
2022-12-15T05:16:26.875Z,81.30
2022-12-15T05:17:26.832Z,81.30
2022-12-15T05:18:26.781Z,81.34
2022-12-15T05:19:26.764Z,81.30
2022-12-15T05:20:26.799Z,81.41
2022-12-15T05:21:26.850Z,81.51
2022-12-15T05:22:26.749Z,81.41
2022-12-15T05:23:26.824Z,81.45
2022-12-15T05:24:26.711Z,81.30
2022-12-15T05:25:26.699Z,81.76
2022-12-15T05:26:26.695Z,81.97
2022-12-15T05:27:26.700Z,82.18
2022-12-15T05:28:26.671Z,81.76
2022-12-15T05:29:26.659Z,82.08
2022-12-15T05:30:26.650Z,82.40
2022-12-15T05:31:26.679Z,82.68
2022-12-15T05:33:36.538Z,83.21
2022-12-15T05:34:36.529Z,83.21
2022-12-15T05:35:36.536Z,83.31
2022-12-15T05:36:36.520Z,83.31
2022-12-15T05:37:36.496Z,83.17
2022-12-15T05:38:36.478Z,83.10
2022-12-15T05:39:36.467Z,83.42
2022-12-15T05:40:36.455Z,83.42
2022-12-15T05:41:36.446Z,83.28
2022-12-15T05:42:36.464Z,83.38
2022-12-15T05:43:36.431Z,83.28
2022-12-15T05:44:36.417Z,83.38
2022-12-15T05:45:36.406Z,83.28
2022-12-15T05:46:36.495Z,83.28
2022-12-15T05:47:36.400Z,83.38
2022-12-15T05:48:36.374Z,83.38
2022-12-15T05:49:36.365Z,83.42
2022-12-15T05:50:36.353Z,83.31
2022-12-15T05:51:36.349Z,83.28
2022-12-15T05:52:36.459Z,83.38
2022-12-15T05:53:36.332Z,83.42
2022-12-15T05:54:36.315Z,83.53
2022-12-15T05:55:36.306Z,83.63
2022-12-15T05:56:36.299Z,83.63
2022-12-15T05:57:36.301Z,83.42
2022-12-15T05:58:40.059Z,83.63
2022-12-15T05:59:37.268Z,83.42
2022-12-15T06:00:36.258Z,83.63
2022-12-15T06:01:36.292Z,83.42
2022-12-15T06:02:36.255Z,83.53
2022-12-15T06:03:36.240Z,83.53
2022-12-15T06:04:36.288Z,83.42
2022-12-15T06:05:36.210Z,83.74
2022-12-15T06:06:36.196Z,83.38
2022-12-15T06:07:36.204Z,83.42
2022-12-15T06:08:36.223Z,83.74
2022-12-15T06:09:36.169Z,83.59
2022-12-15T06:10:36.155Z,83.28
2022-12-15T06:11:36.184Z,83.38
2022-12-15T06:12:36.141Z,83.28
2022-12-15T06:13:36.126Z,83.17
2022-12-15T06:14:36.113Z,83.49
2022-12-15T06:15:36.106Z,82.53
2022-12-15T06:16:40.964Z,82.32
2022-12-15T06:17:37.113Z,82.21
2022-12-15T06:18:36.074Z,82.32
2022-12-15T06:19:36.069Z,82.21
2022-12-15T06:20:36.052Z,82.01
2022-12-15T06:21:36.078Z,82.43
2022-12-15T06:22:36.051Z,82.21
2022-12-15T06:23:36.031Z,82.11
2022-12-15T06:24:36.143Z,82.01
2022-12-15T06:25:36.005Z,81.37
2022-12-15T06:26:36.037Z,81.62
2022-12-15T06:27:36.000Z,81.09
2022-12-15T06:28:35.972Z,81.20
2022-12-15T06:29:35.963Z,81.16
2022-12-15T06:30:35.953Z,81.20
2022-12-15T06:31:36.018Z,80.88
2022-12-15T06:32:35.953Z,80.88
2022-12-15T06:33:35.926Z,81.41
2022-12-15T06:34:35.915Z,81.30
2022-12-15T06:35:35.905Z,80.98
2022-12-15T06:36:35.901Z,81.30
2022-12-15T06:37:35.899Z,81.30
2022-12-15T06:38:35.872Z,81.26
2022-12-15T06:39:35.871Z,80.66
2022-12-15T06:40:38.196Z,80.35
2022-12-15T06:41:35.844Z,80.13
2022-12-15T06:42:35.847Z,80.24
2022-12-15T06:43:35.876Z,80.35
2022-12-15T06:44:35.816Z,80.24
2022-12-15T06:45:35.815Z,80.07
2022-12-15T06:46:35.900Z,80.07
2022-12-15T06:47:35.799Z,80.38
2022-12-15T06:48:35.773Z,80.27
2022-12-15T06:49:35.764Z,80.70
2022-12-15T06:50:35.750Z,81.23
2022-12-15T06:51:35.748Z,81.23
2022-12-15T06:52:35.752Z,81.76
2022-12-15T06:53:35.812Z,81.12
2022-12-15T06:54:35.711Z,81.05
2022-12-15T06:55:35.713Z,81.23
2022-12-15T06:56:35.733Z,81.37
2022-12-15T06:57:35.720Z,80.91
2022-12-15T06:58:35.695Z,80.91
2022-12-15T06:59:35.672Z,80.91
2022-12-15T07:00:35.705Z,80.60
2022-12-15T07:01:35.980Z,79.96
2022-12-15T07:02:35.852Z,80.10
2022-12-15T07:03:36.141Z,80.17
2022-12-15T07:04:35.612Z,80.27
2022-12-15T07:05:35.615Z,80.27
2022-12-15T07:06:35.591Z,79.96
2022-12-15T07:07:35.588Z,79.68
2022-12-15T07:08:41.459Z,79.57
2022-12-15T07:09:36.562Z,79.89
2022-12-15T07:10:35.550Z,79.64
2022-12-15T07:11:35.575Z,79.96
2022-12-15T07:12:35.549Z,80.17
2022-12-15T07:13:35.549Z,80.38
2022-12-15T07:14:35.535Z,79.96
2022-12-15T07:15:35.505Z,79.64
2022-12-15T07:16:35.597Z,79.64
2022-12-15T07:17:35.494Z,79.53
2022-12-15T07:18:35.487Z,80.38
2022-12-15T07:19:35.495Z,80.03
2022-12-15T07:20:35.463Z,79.92
2022-12-15T07:21:35.458Z,80.03
2022-12-15T07:22:35.430Z,79.50
2022-12-15T07:23:53.210Z,78.97
2022-12-15T07:24:36.411Z,79.07
2022-12-15T07:25:35.406Z,78.55
2022-12-15T07:26:35.405Z,78.22
2022-12-15T07:27:35.385Z,78.19
2022-12-15T07:28:35.402Z,77.98
2022-12-15T07:29:35.365Z,78.08
2022-12-15T07:30:38.939Z,77.94
2022-12-15T07:31:35.396Z,77.76
2022-12-15T07:32:35.343Z,77.56
2022-12-15T07:33:35.336Z,77.76
2022-12-15T07:34:35.315Z,77.34
2022-12-15T07:35:35.301Z,77.23
2022-12-15T07:36:35.303Z,77.34
2022-12-15T07:37:35.289Z,77.45
2022-12-15T07:38:35.284Z,77.34
2022-12-15T07:39:35.261Z,77.34
2022-12-15T07:40:35.250Z,77.23
2022-12-15T07:41:35.260Z,77.13
2022-12-15T07:42:35.233Z,77.41
2022-12-15T07:43:36.015Z,77.34
2022-12-15T07:44:35.312Z,77.27
2022-12-15T07:45:35.273Z,77.45
2022-12-15T07:46:35.311Z,77.56
2022-12-15T07:47:35.180Z,77.76
2022-12-15T07:48:35.179Z,77.56
2022-12-15T07:49:35.167Z,77.31
2022-12-15T07:50:35.149Z,77.31
2022-12-15T07:51:35.139Z,77.20
2022-12-15T07:52:35.128Z,77.20
2022-12-15T07:53:35.627Z,76.64
2022-12-15T07:54:35.113Z,76.32
2022-12-15T07:56:04.884Z,76.21
2022-12-15T07:56:39.293Z,75.90
2022-12-15T07:57:35.080Z,75.34
2022-12-15T07:58:35.102Z,75.20
2022-12-15T07:59:35.060Z,74.07
2022-12-15T08:00:35.092Z,73.40
2022-12-15T08:01:35.108Z,72.91
2022-12-15T08:02:35.302Z,71.72
2022-12-15T08:03:35.665Z,70.14
2022-12-15T08:04:35.005Z,69.02
2022-12-15T08:05:34.994Z,68.68
2022-12-15T08:06:34.986Z,68.04
2022-12-15T08:07:34.975Z,67.17
2022-12-15T08:08:42.031Z,66.43
2022-12-15T08:09:42.661Z,66.43
2022-12-15T08:11:52.102Z,65.70
2022-12-15T08:12:52.081Z,66.40
2022-12-15T08:14:02.475Z,66.19
2022-12-15T08:14:53.063Z,66.27
2022-12-15T08:15:52.084Z,65.22
2022-12-15T08:16:52.116Z,65.11
2022-12-15T08:17:52.031Z,64.87
2022-12-15T08:18:52.035Z,64.87
2022-12-15T08:19:55.759Z,64.53
2022-12-15T08:20:53.003Z,63.48
2022-12-15T08:21:51.992Z,62.82
2022-12-15T08:22:51.977Z,62.92
2022-12-15T08:25:01.872Z,62.40
2022-12-15T08:26:01.847Z,62.21
2022-12-15T08:27:01.889Z,62.45
2022-12-15T08:28:01.828Z,62.90
2022-12-15T08:29:24.367Z,64.27
2022-12-15T08:30:02.806Z,64.90
2022-12-15T08:31:01.817Z,64.90
2022-12-15T08:32:02.049Z,64.48
2022-12-15T08:33:01.772Z,64.76
2022-12-15T08:34:01.783Z,64.03
2022-12-15T08:35:01.757Z,64.16
2022-12-15T08:36:01.746Z,64.93
2022-12-15T08:37:01.754Z,64.86
2022-12-15T08:38:05.718Z,66.19
2022-12-15T08:39:08.775Z,66.19
2022-12-15T08:40:01.700Z,66.40
2022-12-15T08:41:01.691Z,66.33
2022-12-15T08:42:01.686Z,66.09
2022-12-15T08:43:01.670Z,66.64
2022-12-15T08:44:01.762Z,66.43
2022-12-15T08:45:01.645Z,67.07
2022-12-15T08:46:01.664Z,67.14
2022-12-15T08:47:01.643Z,66.66
2022-12-15T08:48:01.613Z,65.81
2022-12-15T08:49:01.642Z,64.70
2022-12-15T08:50:01.595Z,64.57
2022-12-15T08:51:01.584Z,63.70
2022-12-15T08:52:01.573Z,62.73
2022-12-15T08:53:29.672Z,62.38
2022-12-15T08:54:02.565Z,60.92
2022-12-15T08:55:01.549Z,60.89
2022-12-15T08:56:01.532Z,61.18
2022-12-15T08:57:01.528Z,60.68
2022-12-15T08:58:01.510Z,60.44
2022-12-15T08:59:01.533Z,60.76
2022-12-15T09:00:01.487Z,60.31
2022-12-15T09:01:01.547Z,59.55
2022-12-15T09:02:01.749Z,58.29
2022-12-15T09:03:01.476Z,58.29
2022-12-15T09:04:01.737Z,58.92
2022-12-15T09:05:01.435Z,58.17
2022-12-15T09:06:01.451Z,58.48
2022-12-15T09:07:01.415Z,58.64
2022-12-15T09:08:06.316Z,57.54
2022-12-15T09:09:02.442Z,56.91
2022-12-15T09:10:01.381Z,56.46
2022-12-15T09:11:01.373Z,55.50
2022-12-15T09:12:01.358Z,55.06
2022-12-15T09:13:01.348Z,54.88
2022-12-15T09:14:01.350Z,54.88
2022-12-15T09:15:01.334Z,54.75
2022-12-15T09:16:11.498Z,54.57
2022-12-15T09:17:02.351Z,55.37
2022-12-15T09:18:01.293Z,54.67
2022-12-15T09:19:01.341Z,55.11
2022-12-15T09:20:01.290Z,55.11
2022-12-15T09:21:01.262Z,55.94
2022-12-15T09:22:01.249Z,55.29
2022-12-15T09:23:01.241Z,55.27
2022-12-15T09:24:01.250Z,54.30
2022-12-15T09:25:01.222Z,53.53
2022-12-15T09:26:01.210Z,53.34
2022-12-15T09:27:01.201Z,53.76
2022-12-15T09:28:01.190Z,53.11
2022-12-15T09:29:01.188Z,52.92
2022-12-15T09:30:01.179Z,53.76
2022-12-15T09:31:01.208Z,53.71
2022-12-15T09:32:01.147Z,52.67
2022-12-15T09:33:01.135Z,52.54
2022-12-15T09:34:01.136Z,51.97
2022-12-15T09:35:01.137Z,53.03
2022-12-15T09:36:01.097Z,53.34
2022-12-15T09:37:01.089Z,53.45
2022-12-15T09:38:01.078Z,53.94
2022-12-15T09:39:01.080Z,53.19
2022-12-15T09:40:01.072Z,53.06
2022-12-15T09:41:01.050Z,52.44
2022-12-15T09:42:01.035Z,52.04
2022-12-15T09:43:32.926Z,52.25
2022-12-15T09:44:02.029Z,53.08
2022-12-15T09:45:01.006Z,53.58
2022-12-15T09:46:01.041Z,52.15
2022-12-15T09:47:00.978Z,53.45
2022-12-15T09:48:00.974Z,53.86
2022-12-15T09:49:00.973Z,53.16
2022-12-15T09:50:00.954Z,54.36
2022-12-15T09:51:00.955Z,53.40
2022-12-15T09:52:01.062Z,52.95
2022-12-15T09:53:00.914Z,53.69
2022-12-15T09:54:01.457Z,53.27
2022-12-15T09:55:00.929Z,53.40
2022-12-15T09:56:00.880Z,52.75
2022-12-15T09:57:01.024Z,52.51
2022-12-15T09:58:01.471Z,52.00
2022-12-15T09:59:00.864Z,52.00
2022-12-15T10:00:00.841Z,52.95
2022-12-15T10:01:00.829Z,52.75
2022-12-15T10:02:00.896Z,51.89
2022-12-15T10:03:01.047Z,51.97
2022-12-15T10:04:01.018Z,51.53
2022-12-15T10:05:00.787Z,51.07
2022-12-15T10:07:01.777Z,50.93
2022-12-15T10:08:00.749Z,51.37
2022-12-15T10:09:00.755Z,52.23
2022-12-15T10:10:00.730Z,52.98
2022-12-15T10:11:00.717Z,53.23
2022-12-15T10:12:00.740Z,54.72
2022-12-15T10:13:02.509Z,56.02
2022-12-15T10:14:00.698Z,56.10
2022-12-15T10:15:00.682Z,56.18
2022-12-15T10:16:00.773Z,56.13
2022-12-15T10:17:00.652Z,58.06
2022-12-15T10:18:00.647Z,58.69
2022-12-15T10:20:01.617Z,58.50
2022-12-15T10:21:00.609Z,59.29
2022-12-15T10:22:00.600Z,60.15
2022-12-15T10:23:00.618Z,60.71
2022-12-15T10:24:00.716Z,61.57
2022-12-15T10:25:09.570Z,61.99
2022-12-15T10:26:01.559Z,62.75
2022-12-15T10:27:00.546Z,62.96
2022-12-15T10:28:00.533Z,63.69
2022-12-15T10:29:00.541Z,64.25
2022-12-15T10:30:00.670Z,64.45
2022-12-15T10:31:00.639Z,64.80
2022-12-15T10:32:00.489Z,64.67
2022-12-15T10:33:00.484Z,65.43
2022-12-15T10:34:00.479Z,65.40
2022-12-15T10:35:00.537Z,65.74
2022-12-15T10:36:00.455Z,65.84
2022-12-15T10:37:00.479Z,65.81
2022-12-15T10:38:00.431Z,65.71
2022-12-15T10:39:00.448Z,65.84
2022-12-15T10:40:00.442Z,66.24
2022-12-15T10:41:00.393Z,66.16
2022-12-15T10:42:00.398Z,65.98
2022-12-15T10:43:00.384Z,65.98
2022-12-15T10:44:00.380Z,66.72
2022-12-15T10:45:00.375Z,66.93
2022-12-15T10:46:00.446Z,67.06
2022-12-15T10:47:00.336Z,67.14
2022-12-15T10:48:00.321Z,66.93
2022-12-15T10:49:00.330Z,66.93
2022-12-15T10:50:00.298Z,67.24
2022-12-15T10:51:00.291Z,67.24
2022-12-15T10:52:00.277Z,67.27
2022-12-15T10:53:00.266Z,67.97
2022-12-15T10:54:00.273Z,68.01
2022-12-15T10:55:00.259Z,68.21
2022-12-15T10:56:00.235Z,68.85
2022-12-15T10:57:00.227Z,68.63
2022-12-15T10:58:00.213Z,69.16
2022-12-15T10:59:00.223Z,69.06
2022-12-15T11:00:00.194Z,68.63
2022-12-15T11:01:00.181Z,69.02
2022-12-15T11:02:00.380Z,68.29
2022-12-15T11:03:00.556Z,68.92
2022-12-15T11:04:00.469Z,68.18
2022-12-15T11:05:00.150Z,68.71
2022-12-15T11:06:00.133Z,68.71
2022-12-15T11:07:00.121Z,68.92
2022-12-15T11:08:00.109Z,69.02
2022-12-15T11:09:00.112Z,69.55
2022-12-15T11:10:00.097Z,69.23
2022-12-15T11:11:00.093Z,69.65
2022-12-15T11:12:00.132Z,69.76
2022-12-15T11:13:00.085Z,69.34
2022-12-15T11:14:00.081Z,69.55
2022-12-15T11:15:00.036Z,69.23
2022-12-15T11:16:00.022Z,69.23
2022-12-15T11:17:00.014Z,69.23
2022-12-15T11:18:00.003Z,69.65
2022-12-15T11:18:59.995Z,70.18
2022-12-15T11:20:03.134Z,70.18
2022-12-15T11:20:59.971Z,70.39
2022-12-15T11:21:59.958Z,70.42
2022-12-15T11:22:59.950Z,70.42
2022-12-15T11:23:59.941Z,70.07
2022-12-15T11:24:59.975Z,70.31
2022-12-15T11:26:04.945Z,70.95
2022-12-15T11:27:00.936Z,71.26
2022-12-15T11:27:59.896Z,71.58
2022-12-15T11:28:59.895Z,71.58
2022-12-15T11:29:59.904Z,71.89
2022-12-15T11:30:59.867Z,71.99
2022-12-15T11:32:05.012Z,72.20
2022-12-15T11:33:00.848Z,71.58
2022-12-15T11:33:59.836Z,71.47
2022-12-15T11:34:59.842Z,71.68
2022-12-15T11:35:59.813Z,72.31
2022-12-15T11:36:59.808Z,72.52
2022-12-15T11:37:59.792Z,72.10
2022-12-15T11:38:59.825Z,72.20
2022-12-15T11:39:59.788Z,72.20
2022-12-15T11:40:59.762Z,72.49
2022-12-15T11:41:59.750Z,72.69
2022-12-15T11:42:59.793Z,72.63
2022-12-15T11:44:04.266Z,72.49
2022-12-15T11:45:00.736Z,72.80
2022-12-15T11:45:59.711Z,72.38
2022-12-15T11:46:59.703Z,72.49
2022-12-15T11:47:59.695Z,72.45
2022-12-15T11:48:59.701Z,72.77
2022-12-15T11:49:59.687Z,72.56
2022-12-15T11:50:59.659Z,72.45
2022-12-15T11:51:59.653Z,72.66
2022-12-15T11:52:59.651Z,72.66
2022-12-15T11:53:59.629Z,72.14
2022-12-15T11:54:59.634Z,72.14
2022-12-15T11:55:59.609Z,72.66
2022-12-15T11:56:59.600Z,72.77
2022-12-15T11:57:59.581Z,72.49
2022-12-15T11:58:59.656Z,73.19
2022-12-15T11:59:59.578Z,72.56
2022-12-15T12:00:59.553Z,72.87
2022-12-15T12:02:03.269Z,72.77
2022-12-15T12:02:59.567Z,72.84
2022-12-15T12:03:59.534Z,73.19
2022-12-15T12:04:59.529Z,72.42
2022-12-15T12:05:59.500Z,72.66
2022-12-15T12:06:59.491Z,72.74
2022-12-15T12:07:59.480Z,72.00
2022-12-15T12:08:59.482Z,72.11
2022-12-15T12:09:59.475Z,72.11
2022-12-15T12:10:59.534Z,71.79
2022-12-15T12:11:59.444Z,72.00
2022-12-15T12:12:59.442Z,72.14
2022-12-15T12:13:59.428Z,72.21
2022-12-15T12:14:59.437Z,72.84
2022-12-15T12:15:59.404Z,72.63
2022-12-15T12:16:59.391Z,72.84
2022-12-15T12:17:59.377Z,73.82
2022-12-15T12:18:59.404Z,72.94
2022-12-15T12:19:59.370Z,73.36
2022-12-15T12:20:59.345Z,73.26
2022-12-15T12:21:59.347Z,73.89
2022-12-15T12:22:59.327Z,73.89
2022-12-15T12:23:59.316Z,73.99
2022-12-15T12:24:59.321Z,73.15
2022-12-15T12:26:02.939Z,74.52
2022-12-15T12:26:59.282Z,73.26
2022-12-15T12:27:59.283Z,73.57
2022-12-15T12:28:59.268Z,73.47
2022-12-15T12:29:59.274Z,73.68
2022-12-15T12:30:59.275Z,73.05
2022-12-15T12:32:04.520Z,73.36
2022-12-15T12:33:00.222Z,73.68
2022-12-15T12:33:59.217Z,73.57
2022-12-15T12:35:30.945Z,73.68
2022-12-15T12:36:00.188Z,74.10
2022-12-15T12:36:59.181Z,74.10
2022-12-15T12:38:03.044Z,73.99
2022-12-15T12:38:59.159Z,74.41
2022-12-15T12:39:59.156Z,74.41
2022-12-15T12:40:59.170Z,74.55
2022-12-15T12:41:59.142Z,74.20
2022-12-15T12:42:59.124Z,74.97
2022-12-15T12:43:59.108Z,74.55
2022-12-15T12:44:59.109Z,74.87
2022-12-15T12:45:59.086Z,74.97
2022-12-15T12:46:59.107Z,75.29
2022-12-15T12:47:59.074Z,75.07
2022-12-15T12:48:59.067Z,75.49
2022-12-15T12:49:59.054Z,75.60
2022-12-15T12:50:59.036Z,75.74
2022-12-15T12:51:59.023Z,75.92
2022-12-15T12:52:59.024Z,75.92
2022-12-15T12:53:59.003Z,76.43
2022-12-15T12:54:59.074Z,76.33
2022-12-15T12:55:58.984Z,76.33
2022-12-15T12:56:58.969Z,76.02
2022-12-15T12:57:58.958Z,75.92